Seth D. — WDF4107 — position and weather

sailwx.info

Track history (hours):
 
Tides and Currents Weather Stations Pressure Air Temp Water Temp Dewpoint Dewpoint Depression Visibility Wind Speed Wind Dir Waves Ship Positions

Seth D.

Owner: C & J Marine Services, Inc., Berwick, LA. More information available from US FCC via Universal Licensing System and Coast Guard Vessel Documentation Center.

Last reported at 2017-Dec-07 21:35 UTC. Time now 2017-Dec-12 12:30 UTC.
Position N 29°33' W 090°26'.

Length 21 m; draft 3 m.

Type: Tug. MMSI: 367448060.

Date/timePositionNaut miles runAvg speedWind from/ knotsBaromVisibWave heightAir tempDewpointWater temp
2017-Dec-07 21:35N 29°33' W 090°26'1 5.0
2017-Dec-07 21:28N 29°33' W 090°27'2 4.6
2017-Dec-07 21:00N 29°34' W 090°29'2 3.7
2017-Dec-07 20:30N 29°34' W 090°31'2 4.7
2017-Dec-07 20:00N 29°34' W 090°34'2 4.7
2017-Dec-07 19:31N 29°35' W 090°36'2 4.8
2017-Dec-07 19:01N 29°36' W 090°39'2 4.5
2017-Dec-07 18:31N 29°37' W 090°41'1 2.4
2017-Dec-07 18:01N 29°36' W 090°43'2 3.2
2017-Dec-07 17:31N 29°35' W 090°43'2 3.4
2017-Dec-07 17:01N 29°34' W 090°45'0 0.6
2017-Dec-07 16:31N 29°34' W 090°45'2 3.7
2017-Dec-07 16:01N 29°34' W 090°43'2 3.7
2017-Dec-07 15:30N 29°33' W 090°42'2 3.5
2017-Dec-07 15:01N 29°34' W 090°43'2 3.7
2017-Dec-07 14:31N 29°34' W 090°45'0 0.1
2017-Dec-07 14:00N 29°33' W 090°45'1 1.0
2017-Dec-07 13:31N 29°33' W 090°45'2 4.5
2017-Dec-07 13:00N 29°32' W 090°48'  
2017-Dec-04 10:30N 29°42' W 095°01'4 7.4
2017-Dec-04 10:00N 29°39' W 094°58'6 8.0
2017-Dec-04 09:12N 29°34' W 094°55'2 8.3
2017-Dec-04 08:59N 29°32' W 094°54'71 6.1
2017-Dec-03 21:17N 30°04' W 093°40'2 7.8
2017-Dec-03 21:00N 30°04' W 093°38'4 7.3
2017-Dec-03 20:30N 30°04' W 093°33'3 7.1
2017-Dec-03 20:01N 30°04' W 093°29'4 7.0
2017-Dec-03 19:30N 30°04' W 093°25'3 6.0
2017-Dec-03 19:00N 30°04' W 093°22'2 4.7
2017-Dec-03 18:31N 30°05' W 093°20'2 4.4
2017-Dec-03 18:01N 30°05' W 093°17'0 0.9
2017-Dec-03 17:30N 30°05' W 093°17'0 0.0
2017-Dec-03 17:01N 30°05' W 093°17'2 3.2
2017-Dec-03 16:30N 30°04' W 093°16'2 4.9
2017-Dec-03 16:01N 30°02' W 093°14'3 6.2
2017-Dec-03 15:31N 29°59' W 093°12'4 6.9
2017-Dec-03 15:00N 29°56' W 093°10'4 6.8
2017-Dec-03 14:24N 29°56' W 093°05'3 6.2
2017-Dec-03 13:58N 29°56' W 093°02'19 5.5
2017-Dec-03 10:36N 29°56' W 092°40'17 3.7
2017-Dec-03 05:56N 29°51' W 092°22'3 6.7
2017-Dec-03 05:31N 29°50' W 092°18'4 6.9
2017-Dec-03 04:55N 29°48' W 092°15'2 5.1
2017-Dec-03 04:31N 29°47' W 092°12'1 2.4
2017-Dec-03 03:56N 29°47' W 092°11'1 3.0
2017-Dec-03 03:30N 29°47' W 092°09'2 3.8
2017-Dec-03 02:55N 29°47' W 092°07'3 6.3
2017-Dec-03 02:25N 29°49' W 092°04'66 6.0
2017-Dec-02 15:26N 29°32' W 090°50'3 6.8
2017-Dec-02 15:01N 29°32' W 090°47'3 5.9
2017-Dec-02 14:31N 29°34' W 090°44'3 5.8
2017-Dec-02 14:01N 29°36' W 090°43'2 4.4
2017-Dec-02 13:30N 29°36' W 090°40'3 5.9
2017-Dec-02 13:00N 29°35' W 090°37'3 6.3
2017-Dec-02 12:30N 29°34' W 090°34'  
2017-Nov-28 07:10N 29°39' W 090°19'2 4.0
2017-Nov-28 06:41N 29°38' W 090°21'1 5.0
2017-Nov-28 06:29N 29°37' W 090°21'3 5.3
2017-Nov-28 05:59N 29°35' W 090°23'2 4.6
2017-Nov-28 05:30N 29°33' W 090°24'5 5.3
2017-Nov-28 04:30N 29°34' W 090°30'3 5.1
2017-Nov-28 04:01N 29°34' W 090°33'2 4.8
2017-Nov-28 03:30N 29°35' W 090°36'2 4.8
2017-Nov-28 03:00N 29°35' W 090°38'2 3.9
2017-Nov-28 02:31N 29°36' W 090°41'2 3.6
2017-Nov-28 02:01N 29°36' W 090°43'2 4.6
2017-Nov-28 01:31N 29°34' W 090°43'2 4.4
2017-Nov-28 01:01N 29°33' W 090°45'2 4.5
2017-Nov-28 00:30N 29°32' W 090°48'  
Track history (hours):
 
Tides and Currents Weather Stations Pressure Air Temp Water Temp Dewpoint Dewpoint Depression Visibility Wind Speed Wind Dir Waves Ship Positions

Seth D.

Owner: C & J Marine Services, Inc., Berwick, LA. More information available from US FCC via Universal Licensing System and Coast Guard Vessel Documentation Center.

Last reported at 2017-Dec-07 21:35 UTC. Time now 2017-Dec-12 12:30 UTC.
Position N 29°33' W 090°26'.

Length 21 m; draft 3 m.

Type: Tug. MMSI: 367448060.

Date/timePositionNaut miles runAvg speedWind from/ knotsBaromVisibWave heightAir tempDewpointWater temp
2017-Dec-07 21:35N 29°33' W 090°26'1 5.0
2017-Dec-07 21:28N 29°33' W 090°27'2 4.6
2017-Dec-07 21:00N 29°34' W 090°29'2 3.7
2017-Dec-07 20:30N 29°34' W 090°31'2 4.7
2017-Dec-07 20:00N 29°34' W 090°34'2 4.7
2017-Dec-07 19:31N 29°35' W 090°36'2 4.8
2017-Dec-07 19:01N 29°36' W 090°39'2 4.5
2017-Dec-07 18:31N 29°37' W 090°41'1 2.4
2017-Dec-07 18:01N 29°36' W 090°43'2 3.2
2017-Dec-07 17:31N 29°35' W 090°43'2 3.4
2017-Dec-07 17:01N 29°34' W 090°45'0 0.6
2017-Dec-07 16:31N 29°34' W 090°45'2 3.7
2017-Dec-07 16:01N 29°34' W 090°43'2 3.7
2017-Dec-07 15:30N 29°33' W 090°42'2 3.5
2017-Dec-07 15:01N 29°34' W 090°43'2 3.7
2017-Dec-07 14:31N 29°34' W 090°45'0 0.1
2017-Dec-07 14:00N 29°33' W 090°45'1 1.0
2017-Dec-07 13:31N 29°33' W 090°45'2 4.5
2017-Dec-07 13:00N 29°32' W 090°48'  
2017-Dec-04 10:30N 29°42' W 095°01'4 7.4
2017-Dec-04 10:00N 29°39' W 094°58'6 8.0
2017-Dec-04 09:12N 29°34' W 094°55'2 8.3
2017-Dec-04 08:59N 29°32' W 094°54'71 6.1
2017-Dec-03 21:17N 30°04' W 093°40'2 7.8
2017-Dec-03 21:00N 30°04' W 093°38'4 7.3
2017-Dec-03 20:30N 30°04' W 093°33'3 7.1
2017-Dec-03 20:01N 30°04' W 093°29'4 7.0
2017-Dec-03 19:30N 30°04' W 093°25'3 6.0
2017-Dec-03 19:00N 30°04' W 093°22'2 4.7
2017-Dec-03 18:31N 30°05' W 093°20'2 4.4
2017-Dec-03 18:01N 30°05' W 093°17'0 0.9
2017-Dec-03 17:30N 30°05' W 093°17'0 0.0
2017-Dec-03 17:01N 30°05' W 093°17'2 3.2
2017-Dec-03 16:30N 30°04' W 093°16'2 4.9
2017-Dec-03 16:01N 30°02' W 093°14'3 6.2
2017-Dec-03 15:31N 29°59' W 093°12'4 6.9
2017-Dec-03 15:00N 29°56' W 093°10'4 6.8
2017-Dec-03 14:24N 29°56' W 093°05'3 6.2
2017-Dec-03 13:58N 29°56' W 093°02'19 5.5
2017-Dec-03 10:36N 29°56' W 092°40'17 3.7
2017-Dec-03 05:56N 29°51' W 092°22'3 6.7
2017-Dec-03 05:31N 29°50' W 092°18'4 6.9
2017-Dec-03 04:55N 29°48' W 092°15'2 5.1
2017-Dec-03 04:31N 29°47' W 092°12'1 2.4
2017-Dec-03 03:56N 29°47' W 092°11'1 3.0
2017-Dec-03 03:30N 29°47' W 092°09'2 3.8
2017-Dec-03 02:55N 29°47' W 092°07'3 6.3
2017-Dec-03 02:25N 29°49' W 092°04'66 6.0
2017-Dec-02 15:26N 29°32' W 090°50'3 6.8
2017-Dec-02 15:01N 29°32' W 090°47'3 5.9
2017-Dec-02 14:31N 29°34' W 090°44'3 5.8
2017-Dec-02 14:01N 29°36' W 090°43'2 4.4
2017-Dec-02 13:30N 29°36' W 090°40'3 5.9
2017-Dec-02 13:00N 29°35' W 090°37'3 6.3
2017-Dec-02 12:30N 29°34' W 090°34'  
2017-Nov-28 07:10N 29°39' W 090°19'2 4.0
2017-Nov-28 06:41N 29°38' W 090°21'1 5.0
2017-Nov-28 06:29N 29°37' W 090°21'3 5.3
2017-Nov-28 05:59N 29°35' W 090°23'2 4.6
2017-Nov-28 05:30N 29°33' W 090°24'5 5.3
2017-Nov-28 04:30N 29°34' W 090°30'3 5.1
2017-Nov-28 04:01N 29°34' W 090°33'2 4.8
2017-Nov-28 03:30N 29°35' W 090°36'2 4.8
2017-Nov-28 03:00N 29°35' W 090°38'2 3.9
2017-Nov-28 02:31N 29°36' W 090°41'2 3.6
2017-Nov-28 02:01N 29°36' W 090°43'2 4.6
2017-Nov-28 01:31N 29°34' W 090°43'2 4.4
2017-Nov-28 01:01N 29°33' W 090°45'2 4.5
2017-Nov-28 00:30N 29°32' W 090°48'  

Dump ship's entire track history